Aérodrome :
LOGIN :

S'inscrire | Disclaimer

   EN    FR    IT 

 










Légende :    VFR   VFR Marginal   IFR   IFR Intensif   IFR Très Intensif
Visi : 
Plafond : 
>= 8 km
>= 3000ft
5 à 8 km
1000 à 3000 ft
1500m à 5 km
500 à 1000 ft
800 à 1500m
200 à 500 ft
< 800m
< 200 ft
Symboles :   Orages  Brouillard  Fortes neiges  Fortes précipitations  Vent > 20 kt
SIGMETs :   Divers  Orages  Givrage  Turbulence  Onde Orograph.  Cendres Volcan.






- Altitude de l'aérodrome : 1475 ft


LSZC - Buochs Stans

DERNIER METAR :
  • 210820Z 21004KT 7000 OVC008 03/02 Q1010 RMK SVFR

METARs EXPIRÉS :
  • 210750Z 21004KT 7000 OVC008 03/02 Q1010 RMK SVFR
  • 210720Z 20007KT 6000 OVC007 02/01 Q1010 RMK SVFR
  • 210650Z 22003KT 7000 OVC009 03/01 Q1010 RMK SVFR
  • 210620Z AUTO 20005KT 9999 OVC009 02/01 Q1010
  • 210550Z AUTO 21004KT 9999 OVC009 02/01 Q1010

TAF TAF LSZC
Valide du 21 à 06h jusqu'au 21 à 15h UTC


210525Z 2106/2115 VRB03KT 8000 BKN011
TEMPO 2106/2109 BKN008
BECMG 2109/2111 SCT015



MET'MAP, la Météo Aéronautique d'un coup d'oeil ! - Copyright ORBIFLY Décembre 2007 - Disclaimer

ORBIFLY MET'MAP TEAM :

Programmation & Développement : Alexandra Zaïnal
Conception & Développement : Baudouin d'Aumeries
Co-Programmation & Développement : Marc-Olivier Méhu
Soutien technique & logistique : Manuel Goepfert

Contact : metmap@orbifly.com




SOURCES & CREDITS :

   NOAA